Sign up for our newsletter to get the latest news and specials!




Product Index
Page: 1 2 3 4 5 6 7 8 9 10 11 12 13 14 15 16 17

48-P63-04   1:48 "Easter Egg Race 30" P-63
48-P63-01   1:48 "Flying Red Horse" P-63 NX63231
48-P51-127   1:48 "Fragile but Agile" P-51D
48-P51-121   1:48 "Frenesi" P-51D
48-Seafury-02   1:48 "G-FURY" Sea Fury FB MK.11
48-P51-135   1:48 "Hi Time II" P-51D 1967
48-P51-134   1:48 "Impatient Virgin" P-51B
48-P51-109   1:48 "It's About Time" P-51D
48-P51-136A   1:48 "Jumpin' Jacques" P-51D F-AZMU
48-P51-136B   1:48 "Jumpin' Jacques" P-51D G-SIJJ
48-P51-119   1:48 "Kansas City Kitty" P-51D
48-Corsair-2   1:48 "Korean War Hero" F4U-4 Corsair
48-P51-96   1:48 "Lady Jo" P-51D
48-Corsair-01   1:48 "Lancer Two" F4U-4 Corsair Reno 1968-69
48-F6F-1   1:48 "Little Nugget" Hellcat Racer
48-P51-73   1:48 "Lou IV" P-51D
48-P51-66   1:48 "Louisiana Kid" P-51D
48-P51-90   1:48 "Lucky Lady VII" P-51D
48-P51-105   1:48 "Mad Max" TF-51D
48-P51-111   1:48 "Man O' War" P-51D
48-P51-128   1:48 "Marinell" P-51D
48-P51-122   1:48 "Masefield" P-51D N6356T
48-P51-118A   1:48 "Mason" 1946 Bendix P-51C
48-P51-2   1:48 "Maytag" P-51 Mustang Racer
48-P51-3   1:48 "Merlin's Magic" P-51D
48-P51-5   1:48 "Miracle Maker" P-51D
48-P51-86   1:48 "Miss America" 1998 P-51D
48-P51-86A   1:48 "Miss America" 2000 P-51D
48-P51-86B   1:48 "Miss America" 2007 P-51D
48-P51-78   1:48 "Miss Helen" P-51D G-BIXL
48-P51-130   1:48 "Miss Kandy" P-51D
48-P51-80   1:48 "Miss Velma" TF-51D
48-P51-126   1:48 "Mobil" P-51D Mustang
48-P51-99   1:48 "Moonbeam McSwine" P-51D
48-P51-88   1:48 "Mormon Mustang" P-51D
48-P51-6   1:48 "Mr Choppers" P-51D
48-P51-102   1:48 "Paul I" P-51D
48-P51-108   1:48 "Pecos Bill" P-51D
48-P51-83   1:48 "Precious Metal" P-51R
48-B26-02   1:48 "Race 76" A-26C Invader
48-P51-103   1:48 "Ridge Runner III" P-51D
48-P51-74   1:48 "Risky Business" P-51D
48-P51-89   1:48 "Saturday Night Special" P-51D
48-P51-27   1:48 "Scat VII" TF-51D
48-Seafury-1   1:48 "September Fury" Sea Fury Reno Unlimited Racer
48-P51-123   1:48 "Shangri La" P-51D N51VF
48-P51-84   1:48 "Short-Fuse Sallee" P-51D
48-Spitfire-1   1:48 "Silver Spitfire" G-IRTY
48-P51-72   1:48 "Six-Shooter" P-51D
48-F8F-3   1:48 "Smirnoff" F8F-2 Bearcat
48-P51-67   1:48 "Spam Can" P-51D
48-P51-71   1:48 "Speedball Alice" P-51D
48-P51-71R   1:48 "Speedball Alice" P-51D Reno Racer
48-P51-114   1:48 "Spirit of Phoenix" P-51D
48-P51-112   1:48 "Stang Evil" P-51D
48-P51-97   1:48 "StrawBoss 2" P-51D
48-P51-1   1:48 "Strega" P-51 Mustang Racer
48-P51-76   1:48 "Stump Jumper" P-51D
48-P51-39A   1:48 "SU SU II" TF-51D
48-P51-98   1:48 "Swedish 26158" SE-BKG P-51D
48-P51-91   1:48 "Sweetie Face" P-51D
48-P51-75   1:48 "Tall in the Saddle" P-51D
48-P51-113   1:48 "Temptation" P-51D
48-T45-03   1:48 "Texas Flag" TW-2 T-45C Goshawk
48-P51-115   1:48 "The Brat III" P-51D
48-P51-116   1:48 "The Hun Hunter Texas" P-51D
48-P51-7   1:48 "Thunderbird" P-51C 1948 and 1949 Bendix
48-P63-02   1:48 "Tipsy Miss" P-63
48-P51-65   1:48 "Toulouse Nuts" TF-51D
48-P51-124   1:48 "Tugboat" P-51D G-PSID
48-P51-104A   1:48 "Tuskegee Airmen" P-51C ver. I
48-P51-77   1:48 "Twilight Tear" P-51D
48-P51-120   1:48 "Voodoo" P-51 2017 Version
48-P51-28   1:48 "Voodoo" P-51D
48-P51-82   1:48 "What's Up Doc?" P-51D
48-P51-95   1:48 "Widowmaker" P-51D
RPD-Vega-48-2   1:48 "Winnie Mae" Lockheed Vega 5C
48-B24-1   1:48 "Witchcraft" B-24J
48-P38-3   1:48 "YIPPEE" P-38J 42-3296
48-P40-1   1:48 "Ziegler" P-40Q Cleveland 1947
48-C130-11E   1:48 934th "Flying Vikings" C-130Es
48-C130-11H   1:48 934th "Flying Vikings" C-130Hs
48-B25-01   1:48 “Psychedelic Monster” B-25J N65780
48-TBM-2   1:48 Aerial Applicators TBM Avenger Fire Bombers
48-B17-1   1:48 Aero Union B-17 Tankers
48-DHC6-6   1:48 AirBC Twin Otter
48-Cessna-7   1:48 Airborne Express Citation I
48-DHC6-9   1:48 Airwest Twin Otter
48-Goose-01   1:48 Alaska Airlines "Golden Nugget" Grumman Goose
48-Goose-09   1:48 Alaska Airlines "Totem Pole" Grumman Goose
48-DC3-3   1:48 Alaska Airlines DC-3s
48-DHC6-01   1:48 Alaska Airlines Golden Nugget Twin Otter
48-Goose-3   1:48 Alaska Coastal Grumman Goose
48-DC3-8   1:48 Alfred Wenger Institute Polar 5/6 BT-67's
RPD-Vega-48-1   1:48 Amelia Earhart Lockheed Vega 5B "Little Red Wagon"
48-PBY-2   1:48 American Export Airlines PBY-2 Catalina
48-C130-06   1:48 Arkansas Air National Guard C-130Es
48-Goose-16   1:48 Avalon Air Transport Goose
RPD-Beech-48-2   1:48 Beechcraft G-17 Staggerwing Antarctic Markings
RPD-Beech-48-1   1:48 Beechcraft G-17 Staggerwing Factory Markings
48-F8F-2   1:48 Blue Angels "Beetle Bomb" Bearcat
48-F8F-1   1:48 Blue Angels Bearcats
48-F6F-2   1:48 Blue Angels Hellcats
48-F7U-1   1:48 Blue Angels Vought Cutlass
48-P51-4   1:48 Bob Hoover "Rockwell" P-51D
48-Concorde-1   1:48 British Airways Union Flag Concorde
48-S2-4   1:48 Cal Fire S-2T Turbine Tracker Fire Bombers
48-OV10-1   1:48 California Department of Forestry OV-10 Broncos
48-Goose-4   1:48 Catalina Flying Boats Grumman Goose
48-S2-3   1:48 CDF S-2 Tracker Fire Bombers
48-T45-01   1:48 Centennial T-45 Goshawk TW-1
48-T45-02   1:48 Centennial T-45 Goshawk TW-2
48-Cessna-1B   1:48 Cessna Slanted Registrations, Black
48-Cessna-1W   1:48 Cessna Slanted Registrations, White
48-P51-129   1:48 Clay Lacy P-51D N64CL
48-Concorde-2   1:48 Concorde Door, Window and Details
48-DC3-10   1:48 Delta Air Lines DC-3 Ship 41
48-C130-10   1:48 Delta L-100 Hercules
48-F106-1   1:48 Edwards Record Setter F-106A 56-0467
48-DC3-6   1:48 Empire Airlines DC-3s
48-Cessna-2   1:48 Ethiopian New Colors Cessna 172s
48-DHC6-10   1:48 Ethiopian New Colors Twin Otters
48-F102-06   1:48 F-102 Standard Markings
RPD-Corsair-48-1   1:48 F2G Cook Cleland's Race 57 Corsair
48-F102-1   1:48 Florida, Louisiana, South Carolina, Tennessee ANG F-102s
48-DHC6-13   1:48 Flugfélag Íslands Twin Otter
48-Spitfire-02   1:48 G-FIRE Spitfire XIV
48-Corsair-3   1:48 Gray and White F4U-7 N965CV
48-DET-7   1:48 Hamilton Standard Prop Logos with Data Blocks
RPD-Hunter-48-1   1:48 Hawker Hunter G-HUNT
48-Huey-2   1:48 HELiPRO New Zealand UH-1H Huey
48-S2-1   1:48 Hemet Valley S-2 Tracker Fire Bombers
48-TBM-1   1:48 Hemet Valley TBM Avenger Fire Bombers
48-C130-05   1:48 Idaho Air National Guard C-130s
48-DC3-5   1:48 Indiana Air National Guard C-47
48-C130-07   1:48 Iraqi Air Force C-130Es
48-C130-12   1:48 JASDF 2019 Scheme C-130Hs
48-C130-13   1:48 JASDF Green Camo Scheme C-130Hs
48-C130-14   1:48 JASDF Light Blue C-130Hs
48-DC3-9   1:48 Kenn Borek BT-67's
48-Cessna-6   1:48 KLM Luchtvaartschool Cessna Citation Is
48-U2-1   1:48 Lockheed U-2A 56-6696
48-U2-2   1:48 Lockheed U-2A 56-6701
48-U2-3   1:48 Lockheed U-2A 56-6722
RPD-Beech-48-3   1:48 Louise Thaden Beechcraft C-17R Staggerwing
48-Cessna-4   1:48 Malev Cessna 172N
48-Widgeon-1   1:48 McDermott Contractors Grumman Widgeon
48-Huey-6   1:48 Multinational Force UH-1V Huey's
48-C130-01   1:48 NASA NC-130B Hercules NO STRIPES
48-C130-01S   1:48 NASA NC-130B Hercules with Stripes
48-S3-1   1:48 NASA S-3B Viking N601NA
48-Huey-1   1:48 NASA UH-1H Hueys
48-Huey-3   1:48 National Science Foundation UH-1N Huey's
48-Huey-4   1:48 North Carolina Forest Service UH-1H Huey
48-F102-2   1:48 North Dakota, Washington, Idaho, Montana ANG F-102s
48-F102-4   1:48 Northeast ANG F-102s CT, NY, PA and VT
48-DC3-4   1:48 Northwest DC-3s
48-L14-1   1:48 Northwest L-14 Super Electras
48-P51-106   1:48 NZ2415 ZK-TAF P-51D
48-Norseman-1   1:48 Ontario Central Norseman
48-P51-46   1:48 P-51A "Polar Bear"
48-P51-101   1:48 P-51C "Beguine"
RPD-P51-48-1   1:48 P-51C "Excalibur III"
48-P51-25   1:48 P-51C "Ina The Macon Belle"
48-P51-53   1:48 P-51C "Princess Elizabeth"
48-P51-41A   1:48 P-51D "Ain't Misbehavin" 1999 Version
48-P51-41   1:48 P-51D "Ain't Misbehavin" 2007 Version
48-P51-14   1:48 P-51D "American Beauty"
48-P51-56   1:48 P-51D "Bald Eagle"
48-P51-18   1:48 P-51D "Barbara Jean"
48-P51-62   1:48 P-51D "Betty Boop"
48-P51-20   1:48 P-51D "Boomer"
48-P51-42   1:48 P-51D "Charlotte's Chariot II'"
48-P51-30   1:48 P-51D "City of Winnipeg Squadron"
48-P51-12   1:48 P-51D "Cloud Dancer"
48-P51-29   1:48 P-51D "Cripes A' Mighty"
48-P51-13   1:48 P-51D "Dakota Kid II"
48-P51-43   1:48 P-51D "Dusty's Dolly'"
48-P51-37   1:48 P-51D "Excalibur"
48-P51-31   1:48 P-51D "February"
48-P51-45   1:48 P-51D "Gentleman Jim"
48-P51-10   1:48 P-51D "Geraldine"
48-P51-11   1:48 P-51D "Glamorous Gal"
48-P51-34   1:48 P-51D "Glamorous Glen III"
48-P51-33   1:48 P-51D "Gunfighter"
48-P51-36   1:48 P-51D "HELL-ER BUST"
48-P51-19   1:48 P-51D "Hurry Home Honey"
48-P51-57   1:48 P-51D "Little Horse"
48-P51-63   1:48 P-51D "Luscious Lisa"
48-P51-21   1:48 P-51D "Miss Marilyn II"
48-P51-59   1:48 P-51D "Montana Miss"
48-P51-52   1:48 P-51D "Obsession"
48-P51-24   1:48 P-51D "OLD CROW"
48-P51-38   1:48 P-51D "Ole Yeller"
48-P51-47   1:48 P-51D "Petie 2nd" N314BG
48-P51-48   1:48 P-51D "Petie 2nd" N5427V
48-P51-58   1:48 P-51D "Petie 3rd"
48-P51-16   1:48 P-51D "Quick Silver"
48-P51-49   1:48 P-51D "Red Dog XII"
48-P51-32   1:48 P-51D "Section Eight"

Page: 1 2 3 4 5 6 7 8 9 10 11 12 13 14 15 16 17

Copyright ©  DRAW Decal. All Rights Reserved.
Built with Volusion